AirNav   ATP
 
 1385 users online  

3GE5 Rockdale Hospital Heliport
Conyers, Georgia, USA

GOING TO CONYERS?


FAA INFORMATION EFFECTIVE 20 JULY 2017

Location

FAA Identifier: 3GE5
Lat/Long: 33-40-48.2700N / 084-00-09.9800W
33-40.804500N / 084-00.166333W
33.6800750 / -84.0027722
(estimated)
Elevation: 865 ft. / 264 m (estimated)
Variation: 04W (2000)
From city: 1 mile N of CONYERS, GA
Time zone: UTC -4 (UTC -5 during Standard Time)
Zip code: 30012

Heliport Operations

Heliport use: Private use, MEDICAL USE.
Activation date: 01/2001
Control tower: no
ARTCC: ATLANTA CENTER
FSS: MACON FLIGHT SERVICE STATION
Attendance: UNATNDD
Wind indicator: yes
Segmented circle: no
Lights: SS-SR

Heliport Communications

WX AWOS-3 at CVC (8 nm E): 118.725 (770-385-7057)
WX AWOS-3PT at D73 (17 nm E): 120.825 (678-635-3668)
WX AWOS-3 at LZU (18 nm N): PHONE 770-339-7753
WX ASOS at PDK (19 nm NW): PHONE 770-457-1691

Nearby radio navigation aids

VOR radial/distance  VOR name  Freq  Var
PDKr133/18.9PEACHTREE VOR/DME116.6005W
ATLr087/21.8ATLANTA VORTAC116.9005W
AHNr245/37.4ATHENS VOR/DME109.6000E

 
NDB name  Hdg/Dist  Freq  Var  ID
ALCOVY288/11.437003WVOF ...- --- ..-.
MONROE259/14.239203WJNM .--- -. --
BARROW COUNTY238/25.740405WBMW -... -- .--
FLOWERY BRANCH192/31.836503WFKV ..-. -.- ...-
COMMERCE232/33.224406WDDA -.. -.. .-
PECAT052/33.231605WFFC ..-. ..-. -.-.

Heliport Services

Runway Information

Helipad H1

Dimensions: 70 x 70 ft. / 21 x 21 m
Surface: concrete
Runway edge lights: PERI
Latitude: 33-40.804500N
Longitude: 084-00.166333W
Elevation: 865.0 ft.
Traffic pattern: leftleft

Heliport Ownership and Management from official FAA records

Ownership: Privately-owned
Owner: ROCKDALE HOSPITAL, LLC
1412 MILSTEAD AVENUE, NE
CONYERS, GA 30012
Phone 770-918-3000
Manager: BEN MANCE
1412 MILSTEAD AVENUE, NE
CONYERS, GA 30012
Phone (770) 918-3792
OTHER CONTACT: DEBORAH ARMSTRONG

Instrument Procedures

There are no published instrument procedures at 3GE5.

Some nearby airports with instrument procedures:

KCVC - Covington Municipal Airport (8 nm E)
D73 - Monroe-Walton County Airport (17 nm E)
KLZU - Gwinnett County Airport-Briscoe Field (18 nm N)
KPDK - Dekalb-Peachtree Airport (19 nm NW)
KATL - Hartsfield - Jackson Atlanta International Airport (21 nm W)
 
Loc | Ops | Rwys | IFR | FBO | Links
Com | Nav | Svcs | Stats | Notes


 
Area around 3GE5 (Rockdale Hospital Heliport)
 
Road maps at: MapQuest Bing Google
 
Aerial photo
No photo
 
Sectional chart

 
Airport distance calculator
Flying to Rockdale Hospital Heliport? Find the distance to fly.

From to 3GE5

Sunrise and sunset
Times for 24-Jul-2017
 Local
(UTC-4)
 Zulu
(UTC)
Morning civil twilight06:1610:16
Sunrise06:4310:43
Sunset20:4100:41
Evening civil twilight21:0901:09

Current date and time
Zulu (UTC)  24-Jul-2017 22:01:31
Local (UTC-4)  24-Jul-2017 18:01:31
 
METAR
KCVC 
8nm E 
242155Z AUTO 00000KT 10SM VCTS SCT055 SCT080 BKN110 25/22 A2999 RMK AO2 LTG DSNT SW THRU NE
KLZU 
18nm N 
242145Z 24004KT 10SM CLR 25/23 A3000 RMK ATIS Z RWY 25 VIS APCH...OO
KPDK 
19nm NW 
242153Z 22006KT 7SM FEW065 26/23 A2999 RMK AO2 LTG DSNT E AND S SLP138 T02610228
TAF
KPDK 
19nm NW 
241947Z 2420/2518 31007KT P6SM VCSH BKN050 TEMPO 2420/2424 VRB15G20KT 4SM TSRA BKN030CB FM250000 26005KT P6SM SCT040 SCT150 FM251300 29005KT P6SM VCSH SCT020 BKN200 FM251600 31006KT P6SM VCSH BKN030 BKN100
KATL 
23nm W 
241947Z 2420/2524 28008KT P6SM VCSH BKN050 BKN100 TEMPO 2420/2424 VRB15G25KT 4SM TSRA BKN035CB FM250000 26005KT P6SM SCT040 SCT150 FM251200 30005KT P6SM VCSH SCT020 BKN200 FM251500 32007KT P6SM VCSH BKN030 BKN100 PROB30 2515/2521 4SM -TSRA BKN025CB
NOTAMs
Click for the latest NOTAMs
NOTAMs are issued by the DoD/FAA and will open in a separate window not controlled by AirNav.

 

 
 

Would you like to see your business listed on this page?

 If your business provides an interesting product or service to pilots, flight crews, aircraft, or users of the Rockdale Hospital Heliport, you should consider listing it here.  To start the listing process, click on the button below
 
Add a business
 

Other Pages about Rockdale Hospital Heliport

Update a link
 
Copyright © AirNav, LLC. All rights reserved. Privacy Policy  Contact